Monday, August 31, 2015, 1:43 PM EDT

KDOV, Dover Air Force Base

Location: Dover, DE, United States Lat: 39.133
Local Time: 1:43 PM EDT (17:43 GMT) Lon: -75.467
Time Zone: US/Eastern Elev: 29 ft

Show me the last for .
Show Decoded

2015-08-31 12:58 METAR KDOV 311658Z AUTO 24007KT 8SM FEW150 SCT190 SCT210 30/20 A3006 RMK AO2
                 SLP182 T02970197 VISNO RWY19 CHINO RWY19 $ =
2015-08-31 11:58 METAR KDOV 311558Z AUTO 24007KT 10SM FEW180 29/22 A3008 =
2015-08-31 10:58 METAR KDOV 311458Z AUTO 24007KT 9SM FEW210 29/22 A3008 =
2015-08-31 09:58 METAR KDOV 311358Z AUTO 22007KT 9SM CLR 27/21 A3007 RMK AO2 SLP186 T02700214
                 VISNO RWY19 CHINO RWY19 $ =
2015-08-31 08:58 METAR KDOV 311258Z AUTO 22007KT 9SM CLR 25/21 A3006 RMK AO2 SLP182 T02460212
                 VISNO RWY19 CHINO RWY19 $ =
2015-08-31 07:58 METAR KDOV 311158Z AUTO 21007KT 7SM SCT120 24/21 A3007 RMK AO2 SLP186 T02380211
                 10240 20234 53009 VISNO RWY19 CHINO RWY19 $ =
2015-08-31 06:58 METAR KDOV 311058Z AUTO 23004KT 10SM BKN110 23/21 A3006 =
2015-08-31 05:58 METAR KDOV 310958Z AUTO 22006KT 10SM SCT130 24/21 A3004 =
2015-08-31 04:58 METAR KDOV 310858Z AUTO 20008KT 10SM SCT120 24/21 A3004 RMK AO2 SLP175 T02380205
                 57006 VISNO RWY19 CHINO RWY19 $ =
2015-08-31 03:58 METAR KDOV 310758Z AUTO 21008KT 10SM BKN120 24/21 A3004 =
2015-08-31 02:58 METAR KDOV 310658Z AUTO 21007KT 10SM SCT140 24/21 A3004 =
2015-08-31 01:58 METAR KDOV 310558Z AUTO 21010KT 10SM FEW130 24/22 A3006 =
2015-08-31 00:58 METAR KDOV 310458Z AUTO 20009KT 10SM CLR 24/22 A3006 RMK AO2 SLP182 T02410215
                 403130190 VISNO RWY19 CHINO RWY19 $ =
2015-08-30 23:58 METAR KDOV 310358Z AUTO 20008KT 10SM CLR 24/21 A3007 =
2015-08-30 22:58 METAR KDOV 310258Z AUTO 20008KT 10SM CLR 24/20 A3007 =
2015-08-30 21:58 METAR KDOV 310158Z AUTO 20008KT 10SM CLR 25/20 A3008 =
2015-08-30 20:58 METAR KDOV 310058Z AUTO 20008KT 10SM CLR 26/19 A3006 =
2015-08-30 19:58 METAR KDOV 302358Z AUTO 20009KT 10SM CLR 27/19 A3005 RMK AO2 SLP179 T02680193
                 10313 20268 52003 VISNO RWY19 CHINO RWY19 $ =
2015-08-30 18:58 METAR KDOV 302258Z AUTO 21007KT 10SM CLR 28/20 A3005 =
2015-08-30 17:58 METAR KDOV 302158Z AUTO 22009KT 10SM CLR 30/19 A3005 =
2015-08-30 16:58 METAR KDOV 302058Z AUTO 22009KT 10SM CLR 30/19 A3005 =
2015-08-30 15:58 METAR KDOV 301958Z AUTO 21009KT 10SM FEW200 31/19 A3005 RMK AO2 SLP179 T03110193
                 VISNO RWY19 CHINO RWY19 $ =
2015-08-30 14:58 METAR KDOV 301858Z AUTO 22008KT 10SM FEW170 SCT210 29/19 A3008 =
2015-08-30 13:58 METAR KDOV 301758Z AUTO 20011KT 10SM FEW190 29/20 A3010 =

Support USWX by starting your Amazon purchase here.